Time;durP1;ratioP1;P1;durP2;ratioP2;P2;SDS_P1;SDS_P2;PMS_P1;PMS_P2;Temp;Humidity;BMP_temperature;BMP_pressure;BME280_temperature;BME280_humidity;BME280_pressure;Samples;Min_cycle;Max_cycle;Signal;HPM_P1;HPM_P2
2024/02/03 00:01:13;;;;;;;1.40;0.82;;;;;;;;;;4970172;28;20043;-66
2024/02/03 00:03:40;;;;;;;1.42;0.98;;;;;;;;;;4965226;28;20047;-66
2024/02/03 00:06:06;;;;;;;1.10;0.90;;;;;;;;;;4961916;28;20043;-66
2024/02/03 00:08:33;;;;;;;1.20;0.95;;;;;;;;;;4960428;28;20039;-66
2024/02/03 00:10:59;;;;;;;1.15;0.93;;;;;;;;;;4963430;28;20057;-70
2024/02/03 00:13:29;;;;;;;0.82;0.80;;;;;;;;;;4963500;28;20058;-68
2024/02/03 00:15:55;;;;;;;1.13;0.70;;;;;;;;;;4960146;28;20042;-69
2024/02/03 00:18:21;;;;;;;1.05;0.75;;;;;;;;;;4958018;28;20050;-66
2024/02/03 00:20:48;;;;;;;1.10;0.70;;;;;;;;;;4967299;28;20053;-66
2024/02/03 00:23:14;;;;;;;1.92;0.75;;;;;;;;;;4969824;28;20046;-66
2024/02/03 00:25:40;;;;;;;1.05;0.85;;;;;;;;;;4967308;28;20051;-66
2024/02/03 00:28:06;;;;;;;1.90;0.80;;;;;;;;;;4968963;28;20069;-67
2024/02/03 00:30:32;;;;;;;1.00;0.70;;;;;;;;;;4968405;28;20529;-66
2024/02/03 00:32:58;;;;;;;1.77;0.70;;;;;;;;;;4968367;28;20054;-69
2024/02/03 00:35:25;;;;;;;1.20;0.80;;;;;;;;;;4963562;28;20542;-67
2024/02/03 00:37:51;;;;;;;1.42;0.70;;;;;;;;;;4966196;28;20035;-67
2024/02/03 00:40:17;;;;;;;1.50;0.82;;;;;;;;;;4948213;28;20058;-67
2024/02/03 00:42:43;;;;;;;0.88;0.70;;;;;;;;;;4966181;28;20109;-67
2024/02/03 00:45:09;;;;;;;1.00;0.80;;;;;;;;;;4966256;28;20046;-67
2024/02/03 00:47:35;;;;;;;1.27;0.80;;;;;;;;;;4964826;28;20111;-67
2024/02/03 00:50:02;;;;;;;1.45;0.93;;;;;;;;;;4969117;28;20053;-67
2024/02/03 00:52:28;;;;;;;1.42;0.73;;;;;;;;;;4967273;28;20115;-67
2024/02/03 00:54:54;;;;;;;2.08;0.80;;;;;;;;;;4963361;28;20031;-67
2024/02/03 00:57:20;;;;;;;0.80;0.80;;;;;;;;;;4960985;28;20145;-66
2024/02/03 00:59:47;;;;;;;1.33;0.73;;;;;;;;;;4967456;28;20038;-65
2024/02/03 01:02:13;;;;;;;0.98;0.65;;;;;;;;;;4965940;28;20061;-65
2024/02/03 01:04:42;;;;;;;1.25;0.70;;;;;;;;;;4966465;28;20035;-65
2024/02/03 01:07:08;;;;;;;1.03;0.70;;;;;;;;;;4963150;28;20049;-65
2024/02/03 01:09:35;;;;;;;5.13;1.27;;;;;;;;;;4960764;28;20051;-65
2024/02/03 01:12:05;;;;;;;2.10;0.77;;;;;;;;;;4960300;28;20039;-65
2024/02/03 01:14:31;;;;;;;1.30;0.93;;;;;;;;;;4963202;28;20031;-65
2024/02/03 01:16:58;;;;;;;1.00;0.80;;;;;;;;;;4962452;28;20050;-65
2024/02/03 01:19:24;;;;;;;1.17;0.80;;;;;;;;;;4966951;28;20047;-66
2024/02/03 01:21:50;;;;;;;0.82;0.80;;;;;;;;;;4966194;28;20421;-66
2024/02/03 01:24:16;;;;;;;1.25;0.98;;;;;;;;;;4967443;28;20042;-67
2024/02/03 01:26:42;;;;;;;2.47;0.85;;;;;;;;;;4967243;28;20428;-65
2024/02/03 01:29:08;;;;;;;0.77;0.77;;;;;;;;;;4967185;28;20045;-65
2024/02/03 01:31:35;;;;;;;1.20;1.05;;;;;;;;;;4967294;28;20046;-66
2024/02/03 01:34:01;;;;;;;0.93;0.80;;;;;;;;;;4968137;28;20038;-65
2024/02/03 01:36:27;;;;;;;1.20;0.90;;;;;;;;;;4962779;28;20066;-66
2024/02/03 01:38:53;;;;;;;0.70;0.68;;;;;;;;;;4966839;28;20434;-65
2024/02/03 01:41:20;;;;;;;0.77;0.70;;;;;;;;;;4950472;28;20402;-65
2024/02/03 01:43:46;;;;;;;0.85;0.63;;;;;;;;;;4969824;28;20035;-64
2024/02/03 01:46:13;;;;;;;0.75;0.60;;;;;;;;;;4965133;28;20041;-66
2024/02/03 01:48:40;;;;;;;1.45;0.70;;;;;;;;;;4967227;28;20039;-65
2024/02/03 01:51:08;;;;;;;1.45;0.80;;;;;;;;;;4967692;28;20050;-66
2024/02/03 01:53:34;;;;;;;0.80;0.80;;;;;;;;;;4964494;28;20367;-66
2024/02/03 01:56:01;;;;;;;0.93;0.73;;;;;;;;;;4966524;28;20453;-66
2024/02/03 01:58:27;;;;;;;0.95;0.70;;;;;;;;;;4960804;28;20058;-65
2024/02/03 02:00:53;;;;;;;3.35;1.00;;;;;;;;;;4971849;28;20046;-65
2024/02/03 02:03:20;;;;;;;1.42;1.02;;;;;;;;;;4970938;28;20051;-66
2024/02/03 02:05:46;;;;;;;0.85;0.70;;;;;;;;;;4964285;28;20058;-65
2024/02/03 02:08:12;;;;;;;1.20;0.80;;;;;;;;;;4965456;28;20058;-65
2024/02/03 02:10:39;;;;;;;1.27;0.80;;;;;;;;;;4964946;28;20039;-65
2024/02/03 02:13:05;;;;;;;0.98;0.80;;;;;;;;;;4964860;28;20030;-65
2024/02/03 02:15:31;;;;;;;1.45;0.75;;;;;;;;;;4964491;28;20050;-66
2024/02/03 02:17:59;;;;;;;1.13;0.80;;;;;;;;;;4971686;28;20038;-68
2024/02/03 02:20:28;;;;;;;0.77;0.70;;;;;;;;;;4971190;28;20066;-66
2024/02/03 02:22:54;;;;;;;1.23;0.80;;;;;;;;;;4963193;28;20054;-68
2024/02/03 02:25:20;;;;;;;1.25;0.70;;;;;;;;;;4968816;28;20504;-66
2024/02/03 02:27:47;;;;;;;0.98;0.60;;;;;;;;;;4967488;28;20039;-66
2024/02/03 02:30:13;;;;;;;0.98;0.70;;;;;;;;;;4971260;28;20035;-66
2024/02/03 02:32:39;;;;;;;0.70;0.70;;;;;;;;;;4970730;28;20043;-66
2024/02/03 02:35:05;;;;;;;0.75;0.68;;;;;;;;;;4970809;28;20037;-66
2024/02/03 02:37:31;;;;;;;1.67;0.70;;;;;;;;;;4968031;28;20058;-66
2024/02/03 02:39:58;;;;;;;0.73;0.70;;;;;;;;;;4969305;28;20034;-66
2024/02/03 02:42:24;;;;;;;1.58;0.82;;;;;;;;;;4967936;28;20035;-66
2024/02/03 02:44:50;;;;;;;0.90;0.60;;;;;;;;;;4971769;28;20140;-66
2024/02/03 02:47:16;;;;;;;0.70;0.50;;;;;;;;;;4969139;28;20382;-66
2024/02/03 02:49:42;;;;;;;0.70;0.60;;;;;;;;;;4969892;28;20034;-66
2024/02/03 02:52:08;;;;;;;3.08;0.77;;;;;;;;;;4967354;28;20059;-67
2024/02/03 02:54:35;;;;;;;1.95;0.82;;;;;;;;;;4970134;28;20065;-67
2024/02/03 02:57:01;;;;;;;1.42;0.73;;;;;;;;;;4962595;28;20046;-66
2024/02/03 02:59:27;;;;;;;1.08;0.65;;;;;;;;;;4971388;28;20042;-65
2024/02/03 03:01:53;;;;;;;1.00;0.70;;;;;;;;;;4968654;28;20363;-66
2024/02/03 03:04:20;;;;;;;0.50;0.50;;;;;;;;;;4969141;28;20050;-66
2024/02/03 03:06:46;;;;;;;1.30;0.80;;;;;;;;;;4969442;28;20051;-66
2024/02/03 03:09:12;;;;;;;1.20;0.70;;;;;;;;;;4966726;28;20038;-65
2024/02/03 03:11:39;;;;;;;1.08;0.70;;;;;;;;;;4958655;28;20534;-65
2024/02/03 03:14:05;;;;;;;0.75;0.70;;;;;;;;;;4970426;28;20406;-66
2024/02/03 03:16:32;;;;;;;0.73;0.68;;;;;;;;;;4963351;28;20043;-66
2024/02/03 03:18:58;;;;;;;1.00;0.77;;;;;;;;;;4964054;28;20502;-66
2024/02/03 03:21:24;;;;;;;0.65;0.57;;;;;;;;;;4968716;28;20039;-65
2024/02/03 03:23:50;;;;;;;0.88;0.70;;;;;;;;;;4969409;28;20402;-66
2024/02/03 03:26:16;;;;;;;0.90;0.70;;;;;;;;;;4969982;28;20054;-65
2024/02/03 03:28:42;;;;;;;1.75;0.85;;;;;;;;;;4968483;28;20074;-64
2024/02/03 03:31:09;;;;;;;1.05;0.90;;;;;;;;;;4968966;28;20046;-66
2024/02/03 03:33:35;;;;;;;1.65;0.82;;;;;;;;;;4968784;28;20042;-66
2024/02/03 03:36:01;;;;;;;0.98;0.80;;;;;;;;;;4965737;28;20035;-65
2024/02/03 03:38:28;;;;;;;1.08;0.73;;;;;;;;;;4968587;28;20046;-66
2024/02/03 03:40:55;;;;;;;0.95;0.85;;;;;;;;;;4970269;28;20035;-66
2024/02/03 03:43:22;;;;;;;1.10;0.80;;;;;;;;;;4970765;28;20053;-66
2024/02/03 03:45:48;;;;;;;1.17;0.80;;;;;;;;;;4963166;28;20054;-66
2024/02/03 03:48:15;;;;;;;2.13;0.85;;;;;;;;;;4961433;28;20126;-66
2024/02/03 03:50:41;;;;;;;2.05;0.88;;;;;;;;;;4968973;28;20038;-66
2024/02/03 03:53:07;;;;;;;1.83;1.08;;;;;;;;;;4965490;28;20050;-65
2024/02/03 03:55:33;;;;;;;1.02;0.95;;;;;;;;;;4966564;28;20470;-66
2024/02/03 03:57:59;;;;;;;1.60;0.80;;;;;;;;;;4963939;28;20034;-69
2024/02/03 04:00:25;;;;;;;1.15;0.70;;;;;;;;;;4962374;28;20078;-65
2024/02/03 04:02:51;;;;;;;0.85;0.70;;;;;;;;;;4967798;28;20050;-66
2024/02/03 04:05:18;;;;;;;0.85;0.57;;;;;;;;;;4970477;28;20042;-64
2024/02/03 04:07:44;;;;;;;0.85;0.77;;;;;;;;;;4963885;28;20430;-66
2024/02/03 04:10:11;;;;;;;1.63;0.77;;;;;;;;;;4965185;28;20382;-65
2024/02/03 04:12:37;;;;;;;1.23;0.80;;;;;;;;;;4960660;28;20031;-66
2024/02/03 04:15:03;;;;;;;1.00;0.80;;;;;;;;;;4960957;28;20065;-66
2024/02/03 04:17:31;;;;;;;1.05;0.63;;;;;;;;;;4964594;28;20043;-66
2024/02/03 04:19:57;;;;;;;0.90;0.70;;;;;;;;;;4970175;28;20359;-66
2024/02/03 04:22:23;;;;;;;1.35;0.90;;;;;;;;;;4968866;28;20058;-66
2024/02/03 04:24:49;;;;;;;0.70;0.70;;;;;;;;;;4968016;28;20026;-66
2024/02/03 04:27:15;;;;;;;0.75;0.60;;;;;;;;;;4969269;28;20054;-64
2024/02/03 04:29:42;;;;;;;1.00;0.90;;;;;;;;;;4967587;28;20062;-66
2024/02/03 04:32:08;;;;;;;0.80;0.60;;;;;;;;;;4969201;28;20054;-65
2024/02/03 04:34:34;;;;;;;0.80;0.70;;;;;;;;;;4967832;28;20038;-65
2024/02/03 04:37:00;;;;;;;3.47;0.90;;;;;;;;;;4969402;28;20051;-66
2024/02/03 04:39:26;;;;;;;0.90;0.80;;;;;;;;;;4962075;28;20050;-66
2024/02/03 04:41:52;;;;;;;1.00;0.75;;;;;;;;;;4981332;28;20039;-66
2024/02/03 04:44:19;;;;;;;1.40;0.80;;;;;;;;;;4969318;28;20065;-66
2024/02/03 04:46:45;;;;;;;1.02;0.80;;;;;;;;;;4969746;28;20030;-65
2024/02/03 04:49:11;;;;;;;1.13;0.75;;;;;;;;;;4965197;28;20030;-65
2024/02/03 04:51:37;;;;;;;1.25;0.80;;;;;;;;;;4964517;28;20379;-66
2024/02/03 04:54:03;;;;;;;1.23;0.90;;;;;;;;;;4963739;28;20047;-65
2024/02/03 04:56:29;;;;;;;0.90;0.70;;;;;;;;;;4960812;28;20042;-65
2024/02/03 04:58:55;;;;;;;0.85;0.70;;;;;;;;;;4962204;28;20061;-65
2024/02/03 05:01:22;;;;;;;0.85;0.70;;;;;;;;;;4958810;28;20041;-65
2024/02/03 05:03:48;;;;;;;1.25;0.80;;;;;;;;;;4965657;28;20572;-65
2024/02/03 05:06:14;;;;;;;1.05;0.73;;;;;;;;;;4968146;28;20054;-67
2024/02/03 05:08:40;;;;;;;0.88;0.80;;;;;;;;;;4967791;28;20470;-65
2024/02/03 05:11:06;;;;;;;0.95;0.73;;;;;;;;;;4957597;28;20031;-69
2024/02/03 05:13:34;;;;;;;1.23;1.10;;;;;;;;;;4964470;28;20038;-66
2024/02/03 05:16:00;;;;;;;1.08;0.90;;;;;;;;;;4970989;28;20039;-66
2024/02/03 05:18:26;;;;;;;1.38;1.15;;;;;;;;;;4971163;28;20035;-66
2024/02/03 05:20:52;;;;;;;0.77;0.70;;;;;;;;;;4971800;28;20432;-66
2024/02/03 05:23:19;;;;;;;1.10;1.00;;;;;;;;;;4972508;28;20039;-65
2024/02/03 05:25:46;;;;;;;0.93;0.82;;;;;;;;;;4971467;28;20501;-65
2024/02/03 05:28:12;;;;;;;1.48;0.98;;;;;;;;;;4969857;28;20153;-66
2024/02/03 05:30:38;;;;;;;1.77;1.35;;;;;;;;;;4967797;28;20522;-66
2024/02/03 05:33:04;;;;;;;5.30;3.22;;;;;;;;;;4964256;28;20039;-65
2024/02/03 05:35:30;;;;;;;14.25;7.70;;;;;;;;;;4970419;28;20062;-67
2024/02/03 05:37:57;;;;;;;17.65;9.65;;;;;;;;;;4969804;28;20035;-67
2024/02/03 05:40:23;;;;;;;9.77;5.38;;;;;;;;;;4966747;28;20039;-65
2024/02/03 05:42:49;;;;;;;11.30;6.07;;;;;;;;;;4968960;28;20041;-70
2024/02/03 05:45:17;;;;;;;18.25;10.30;;;;;;;;;;4972230;28;20057;-66
2024/02/03 05:47:43;;;;;;;14.68;6.80;;;;;;;;;;4970780;28;20050;-66
2024/02/03 05:50:09;;;;;;;4.55;3.03;;;;;;;;;;4966496;28;20068;-66
2024/02/03 05:52:35;;;;;;;4.07;2.13;;;;;;;;;;4970833;28;20058;-66
2024/02/03 05:55:02;;;;;;;2.50;1.77;;;;;;;;;;4963358;28;20049;-69
2024/02/03 05:57:28;;;;;;;2.60;1.92;;;;;;;;;;4959679;28;20054;-65
2024/02/03 05:59:54;;;;;;;1.67;1.50;;;;;;;;;;4964974;28;20058;-66
2024/02/03 06:02:20;;;;;;;2.85;1.70;;;;;;;;;;4961701;28;20050;-65
2024/02/03 06:04:46;;;;;;;2.95;1.67;;;;;;;;;;4965737;28;20037;-66
2024/02/03 06:07:13;;;;;;;2.10;1.45;;;;;;;;;;4965663;28;20062;-62
2024/02/03 06:09:39;;;;;;;2.00;1.30;;;;;;;;;;4965171;28;20061;-64
2024/02/03 06:12:06;;;;;;;2.38;1.40;;;;;;;;;;4969177;28;20057;-64
2024/02/03 06:14:33;;;;;;;2.50;1.20;;;;;;;;;;4971301;28;20050;-64
2024/02/03 06:16:59;;;;;;;4.65;2.20;;;;;;;;;;4971600;28;20050;-63
2024/02/03 06:19:25;;;;;;;5.35;2.83;;;;;;;;;;4971301;28;20042;-64
2024/02/03 06:21:51;;;;;;;4.13;2.15;;;;;;;;;;4969237;28;20416;-64
2024/02/03 06:24:17;;;;;;;3.17;1.80;;;;;;;;;;4970559;28;20391;-64
2024/02/03 06:26:43;;;;;;;3.40;1.98;;;;;;;;;;4969754;28;20035;-65
2024/02/03 06:29:10;;;;;;;7.25;2.17;;;;;;;;;;4970735;28;20051;-64
2024/02/03 06:31:37;;;;;;;2.53;1.60;;;;;;;;;;4966290;28;20046;-64
2024/02/03 06:34:03;;;;;;;2.33;1.50;;;;;;;;;;4969024;28;20076;-63
2024/02/03 06:36:29;;;;;;;2.90;1.70;;;;;;;;;;4968287;28;20051;-64
2024/02/03 06:38:55;;;;;;;3.83;1.55;;;;;;;;;;4967182;28;20042;-64
2024/02/03 06:41:21;;;;;;;2.47;1.40;;;;;;;;;;4968675;28;20047;-65
2024/02/03 06:43:48;;;;;;;4.15;1.42;;;;;;;;;;4964133;28;20062;-64
2024/02/03 06:46:14;;;;;;;2.60;1.63;;;;;;;;;;4966175;28;20039;-64
2024/02/03 06:48:40;;;;;;;19.70;8.13;;;;;;;;;;4969634;28;20041;-63
2024/02/03 06:51:06;;;;;;;8.13;3.75;;;;;;;;;;4963784;28;20102;-64
2024/02/03 06:53:32;;;;;;;2.95;1.65;;;;;;;;;;4962936;28;20503;-63
2024/02/03 06:55:58;;;;;;;3.45;1.80;;;;;;;;;;4965373;28;20039;-64
2024/02/03 06:58:25;;;;;;;1.75;1.25;;;;;;;;;;4964175;28;20043;-64
2024/02/03 07:00:51;;;;;;;2.42;1.33;;;;;;;;;;4964086;28;20030;-67
2024/02/03 07:03:17;;;;;;;5.00;1.80;;;;;;;;;;4969514;28;20410;-63
2024/02/03 07:05:43;;;;;;;4.60;2.35;;;;;;;;;;4962923;28;20039;-63
2024/02/03 07:08:09;;;;;;;6.80;2.60;;;;;;;;;;4958424;28;20511;-65
2024/02/03 07:10:36;;;;;;;5.28;2.63;;;;;;;;;;4961405;28;20069;-63
2024/02/03 07:13:02;;;;;;;3.58;1.90;;;;;;;;;;4981152;28;20046;-64
2024/02/03 07:15:28;;;;;;;2.08;1.48;;;;;;;;;;4970352;28;20477;-63
2024/02/03 07:17:54;;;;;;;5.60;1.70;;;;;;;;;;4970607;28;20035;-63
2024/02/03 07:20:20;;;;;;;2.33;1.52;;;;;;;;;;4962446;28;20043;-64
2024/02/03 07:22:46;;;;;;;6.70;1.63;;;;;;;;;;4963914;28;20405;-64
2024/02/03 07:25:12;;;;;;;4.00;1.63;;;;;;;;;;4968281;28;20042;-64
2024/02/03 07:27:38;;;;;;;2.10;1.42;;;;;;;;;;4968240;28;20358;-63
2024/02/03 07:30:05;;;;;;;3.58;1.48;;;;;;;;;;4955746;28;20046;-64
2024/02/03 07:32:31;;;;;;;2.92;1.90;;;;;;;;;;4962173;28;20111;-63
2024/02/03 07:34:57;;;;;;;2.70;1.60;;;;;;;;;;4965110;28;20054;-63
2024/02/03 07:37:23;;;;;;;2.95;1.92;;;;;;;;;;4968646;28;20038;-64
2024/02/03 07:39:49;;;;;;;3.03;1.88;;;;;;;;;;4962628;28;21416;-64
2024/02/03 07:42:16;;;;;;;3.40;2.25;;;;;;;;;;4955446;28;20031;-64
2024/02/03 07:44:42;;;;;;;2.58;1.90;;;;;;;;;;4965530;28;20061;-64
2024/02/03 07:47:09;;;;;;;3.47;1.70;;;;;;;;;;4960167;28;20074;-65
2024/02/03 07:49:35;;;;;;;2.95;1.60;;;;;;;;;;4962242;28;20054;-64
2024/02/03 07:52:01;;;;;;;2.28;1.55;;;;;;;;;;4961385;28;20034;-67
2024/02/03 07:54:27;;;;;;;8.98;4.00;;;;;;;;;;4956623;28;20058;-65
2024/02/03 07:56:53;;;;;;;9.15;4.20;;;;;;;;;;4955663;28;20552;-65
2024/02/03 07:59:19;;;;;;;4.88;2.90;;;;;;;;;;4979995;28;20062;-63
2024/02/03 08:01:46;;;;;;;4.20;2.55;;;;;;;;;;4965811;28;20532;-63
2024/02/03 08:04:12;;;;;;;3.13;2.60;;;;;;;;;;4962476;28;20054;-63
2024/02/03 08:06:38;;;;;;;2.75;1.80;;;;;;;;;;4961102;28;20507;-62
2024/02/03 08:09:04;;;;;;;2.83;1.90;;;;;;;;;;4958666;28;20039;-64
2024/02/03 08:11:30;;;;;;;3.65;2.42;;;;;;;;;;4965488;28;20138;-63
2024/02/03 08:13:56;;;;;;;6.28;4.40;;;;;;;;;;4956464;28;20051;-67
2024/02/03 08:16:22;;;;;;;7.70;4.32;;;;;;;;;;4962504;28;20058;-65
2024/02/03 08:18:48;;;;;;;15.15;8.82;;;;;;;;;;4962503;28;20063;-64
2024/02/03 08:21:14;;;;;;;10.63;6.70;;;;;;;;;;4964212;28;20057;-63
2024/02/03 08:23:41;;;;;;;8.07;4.80;;;;;;;;;;4961313;28;20388;-64
2024/02/03 08:26:07;;;;;;;9.38;4.82;;;;;;;;;;4964296;28;20069;-65
2024/02/03 08:28:33;;;;;;;11.70;4.88;;;;;;;;;;4965173;28;20467;-65
2024/02/03 08:30:59;;;;;;;5.40;4.13;;;;;;;;;;4963470;28;20414;-65
2024/02/03 08:33:25;;;;;;;6.80;4.22;;;;;;;;;;4965452;28;20050;-65
2024/02/03 08:35:51;;;;;;;7.20;4.72;;;;;;;;;;4966601;28;20031;-64
2024/02/03 08:38:17;;;;;;;9.85;4.82;;;;;;;;;;4966852;28;20058;-64
2024/02/03 08:40:47;;;;;;;5.80;3.85;;;;;;;;;;4966008;28;20274;-64
2024/02/03 08:43:13;;;;;;;7.38;4.20;;;;;;;;;;4966395;28;20047;-64
2024/02/03 08:45:39;;;;;;;7.70;3.88;;;;;;;;;;4963317;28;20043;-65
2024/02/03 08:48:06;;;;;;;9.30;4.15;;;;;;;;;;4969312;28;20066;-65
2024/02/03 08:50:32;;;;;;;3.78;2.38;;;;;;;;;;4968659;28;20422;-65
2024/02/03 08:52:58;;;;;;;4.03;2.30;;;;;;;;;;4967186;28;20054;-64
2024/02/03 08:55:24;;;;;;;2.90;2.00;;;;;;;;;;4970327;28;20043;-65
2024/02/03 08:57:50;;;;;;;5.78;2.50;;;;;;;;;;4967153;28;20055;-64
2024/02/03 09:00:16;;;;;;;3.92;2.35;;;;;;;;;;4967772;28;20035;-64
2024/02/03 09:02:42;;;;;;;3.22;2.15;;;;;;;;;;4967963;28;20050;-65
2024/02/03 09:05:09;;;;;;;4.40;2.70;;;;;;;;;;4969399;28;20051;-65
2024/02/03 09:07:35;;;;;;;5.47;2.88;;;;;;;;;;4963762;28;20058;-64
2024/02/03 09:10:03;;;;;;;3.83;2.20;;;;;;;;;;4965983;28;20383;-64
2024/02/03 09:12:29;;;;;;;7.82;2.58;;;;;;;;;;4966991;28;20046;-64
2024/02/03 09:14:56;;;;;;;4.10;2.60;;;;;;;;;;4964202;28;20043;-64
2024/02/03 09:17:22;;;;;;;5.15;2.50;;;;;;;;;;4965811;28;20494;-64
2024/02/03 09:19:48;;;;;;;6.47;2.80;;;;;;;;;;4971708;28;20059;-66
2024/02/03 09:22:14;;;;;;;4.95;2.60;;;;;;;;;;4971932;28;20048;-66
2024/02/03 09:24:41;;;;;;;4.43;2.60;;;;;;;;;;4971473;28;20510;-66
2024/02/03 09:27:07;;;;;;;4.30;2.70;;;;;;;;;;4973369;28;20050;-66
2024/02/03 09:29:37;;;;;;;4.45;2.40;;;;;;;;;;4973324;28;20494;-63
2024/02/03 09:32:04;;;;;;;5.03;2.75;;;;;;;;;;4969997;28;20398;-67
2024/02/03 09:34:30;;;;;;;3.42;2.55;;;;;;;;;;4967050;28;20035;-65
2024/02/03 09:36:56;;;;;;;4.32;2.78;;;;;;;;;;4973576;28;20037;-69
2024/02/03 09:39:22;;;;;;;4.82;2.65;;;;;;;;;;4958075;28;20055;-69
2024/02/03 09:41:49;;;;;;;6.32;3.10;;;;;;;;;;4957266;28;20042;-66
2024/02/03 09:44:15;;;;;;;4.82;2.72;;;;;;;;;;4954597;28;20059;-68
2024/02/03 09:46:41;;;;;;;5.38;3.35;;;;;;;;;;4955753;28;20051;-68
2024/02/03 09:49:07;;;;;;;9.35;3.67;;;;;;;;;;4959667;28;20051;-67
2024/02/03 09:51:33;;;;;;;7.70;4.65;;;;;;;;;;4964104;28;20141;-68
2024/02/03 09:54:00;;;;;;;5.50;2.90;;;;;;;;;;4964226;28;20051;-65
2024/02/03 09:56:26;;;;;;;5.40;3.15;;;;;;;;;;4962173;28;20043;-65
2024/02/03 09:58:52;;;;;;;4.60;3.20;;;;;;;;;;4964183;28;20126;-66
2024/02/03 10:01:18;;;;;;;3.85;2.95;;;;;;;;;;4968035;28;20478;-66
2024/02/03 10:04:13;;;;;;;5.53;3.28;;;;;;;;;;4962374;28;20057;-65
2024/02/03 10:06:41;;;;;;;4.55;3.17;;;;;;;;;;4969469;28;20051;-67
2024/02/03 10:09:08;;;;;;;6.28;3.63;;;;;;;;;;4965909;28;20070;-64
2024/02/03 10:11:39;;;;;;;5.63;3.42;;;;;;;;;;4965946;28;20059;-64
2024/02/03 10:14:05;;;;;;;8.38;3.47;;;;;;;;;;4969200;28;20046;-65
2024/02/03 10:16:44;;;;;;;5.85;3.85;;;;;;;;;;4969858;28;20058;-64
2024/02/03 10:19:11;;;;;;;7.82;2.47;;;;;;;;;;4965832;28;20035;-62
2024/02/03 10:21:37;;;;;;;4.50;3.25;;;;;;;;;;4968418;28;20035;-62
2024/02/03 10:24:04;;;;;;;6.65;3.15;;;;;;;;;;4964494;28;20038;-62
2024/02/03 10:26:30;;;;;;;5.40;3.63;;;;;;;;;;4965154;28;20133;-63
2024/02/03 10:28:56;;;;;;;5.05;3.63;;;;;;;;;;4966669;28;20710;-66
2024/02/03 10:31:23;;;;;;;4.10;3.10;;;;;;;;;;4962270;28;20062;-63
2024/02/03 10:33:49;;;;;;;4.97;3.10;;;;;;;;;;4960961;28;20046;-63
2024/02/03 10:36:15;;;;;;;4.50;3.20;;;;;;;;;;4970527;28;20050;-62
2024/02/03 10:38:41;;;;;;;5.65;3.30;;;;;;;;;;4967814;28;20045;-64
2024/02/03 10:41:12;;;;;;;4.93;2.95;;;;;;;;;;4961238;28;20061;-64
2024/02/03 10:43:38;;;;;;;5.75;3.55;;;;;;;;;;4963362;28;20031;-63
2024/02/03 10:46:05;;;;;;;3.83;3.05;;;;;;;;;;4958240;28;20061;-63
2024/02/03 10:48:40;;;;;;;6.50;3.30;;;;;;;;;;4977766;28;20039;-62
2024/02/03 10:51:33;;;;;;;5.18;3.33;;;;;;;;;;4956294;28;20034;-64
2024/02/03 10:54:09;;;;;;;5.75;3.03;;;;;;;;;;4970085;28;20608;-63
2024/02/03 10:56:37;;;;;;;6.10;3.17;;;;;;;;;;4960317;28;20059;-61
2024/02/03 10:59:05;;;;;;;5.28;3.10;;;;;;;;;;4966934;28;20035;-64
2024/02/03 11:01:40;;;;;;;6.43;3.28;;;;;;;;;;4958004;28;20442;-63
2024/02/03 11:04:07;;;;;;;4.68;3.13;;;;;;;;;;4961880;28;20061;-63
2024/02/03 11:06:33;;;;;;;4.22;2.80;;;;;;;;;;4966292;28;20057;-63
2024/02/03 11:09:29;;;;;;;3.72;2.67;;;;;;;;;;4965021;28;20054;-63
2024/02/03 11:11:55;;;;;;;4.53;3.00;;;;;;;;;;4958317;28;20444;-64
2024/02/03 11:14:27;;;;;;;3.63;3.10;;;;;;;;;;4964572;28;20043;-63
2024/02/03 11:16:54;;;;;;;3.42;2.67;;;;;;;;;;4967306;28;20034;-63
2024/02/03 11:19:30;;;;;;;4.32;2.85;;;;;;;;;;4971072;28;20045;-63
2024/02/03 11:21:57;;;;;;;6.80;3.83;;;;;;;;;;4960019;28;20394;-63
2024/02/03 11:24:24;;;;;;;7.18;3.20;;;;;;;;;;4968004;28;20030;-64
2024/02/03 11:27:03;;;;;;;4.50;3.10;;;;;;;;;;4965307;28;20592;-63
2024/02/03 11:29:30;;;;;;;5.93;2.78;;;;;;;;;;4965667;28;20030;-64
2024/02/03 11:32:10;;;;;;;4.10;2.80;;;;;;;;;;4962483;28;20031;-64
2024/02/03 11:34:37;;;;;;;4.50;2.90;;;;;;;;;;4965827;28;20035;-65
2024/02/03 11:37:05;;;;;;;4.10;2.90;;;;;;;;;;4966317;28;20513;-65
2024/02/03 11:39:35;;;;;;;4.78;2.90;;;;;;;;;;4964115;28;20050;-62
2024/02/03 11:42:07;;;;;;;4.25;2.95;;;;;;;;;;4963829;28;20046;-63
2024/02/03 11:44:42;;;;;;;4.97;3.17;;;;;;;;;;4968443;28;20512;-64
2024/02/03 11:47:08;;;;;;;5.22;3.45;;;;;;;;;;4969066;28;20046;-63
2024/02/03 11:49:35;;;;;;;4.65;3.17;;;;;;;;;;4968256;28;20042;-63
2024/02/03 11:52:02;;;;;;;6.22;3.17;;;;;;;;;;4966952;28;20037;-64
2024/02/03 11:54:28;;;;;;;4.57;3.22;;;;;;;;;;4963731;28;20030;-63
2024/02/03 11:56:55;;;;;;;5.10;3.20;;;;;;;;;;4970854;28;20042;-63
2024/02/03 11:59:31;;;;;;;5.72;3.30;;;;;;;;;;4957406;28;20053;-63
2024/02/03 12:01:58;;;;;;;5.25;3.63;;;;;;;;;;4954191;28;20045;-64
2024/02/03 12:04:26;;;;;;;4.25;2.90;;;;;;;;;;4956637;28;20039;-64
2024/02/03 12:06:54;;;;;;;3.00;2.20;;;;;;;;;;4965019;28;20046;-63
2024/02/03 12:09:21;;;;;;;5.13;2.15;;;;;;;;;;4971341;28;20058;-64
2024/02/03 12:11:49;;;;;;;3.42;2.28;;;;;;;;;;4969326;28;20038;-64
2024/02/03 12:14:17;;;;;;;4.45;2.80;;;;;;;;;;4963459;28;20038;-64
2024/02/03 12:16:47;;;;;;;2.95;2.22;;;;;;;;;;4968209;28;20034;-63
2024/02/03 12:19:13;;;;;;;5.03;2.55;;;;;;;;;;4962087;28;20057;-65
2024/02/03 12:21:40;;;;;;;3.83;2.47;;;;;;;;;;4968294;28;20030;-65
2024/02/03 12:24:08;;;;;;;4.90;2.50;;;;;;;;;;4963969;28;20042;-64
2024/02/03 12:26:34;;;;;;;4.25;2.63;;;;;;;;;;4966000;28;20051;-64
2024/02/03 12:29:01;;;;;;;3.40;2.50;;;;;;;;;;4966017;28;20035;-64
2024/02/03 12:31:27;;;;;;;4.00;2.30;;;;;;;;;;4960467;28;20055;-64
2024/02/03 12:33:54;;;;;;;4.10;2.58;;;;;;;;;;4968968;28;20031;-63
2024/02/03 12:36:21;;;;;;;3.72;2.03;;;;;;;;;;4969941;28;20506;-65
2024/02/03 12:38:47;;;;;;;4.45;2.83;;;;;;;;;;4969102;28;20035;-64
2024/02/03 12:41:13;;;;;;;3.30;2.47;;;;;;;;;;4965666;28;20500;-63
2024/02/03 12:43:39;;;;;;;3.20;2.53;;;;;;;;;;4969787;28;20038;-64
2024/02/03 12:46:06;;;;;;;6.25;2.58;;;;;;;;;;4964661;28;20051;-63
2024/02/03 12:48:35;;;;;;;5.00;3.00;;;;;;;;;;4964693;28;20065;-62
2024/02/03 12:51:01;;;;;;;4.93;3.20;;;;;;;;;;4961738;28;20050;-63
2024/02/03 12:53:29;;;;;;;4.43;3.15;;;;;;;;;;4966473;28;20035;-64
2024/02/03 12:55:55;;;;;;;5.65;3.60;;;;;;;;;;4971243;28;20039;-63
2024/02/03 12:58:24;;;;;;;5.47;3.28;;;;;;;;;;4958696;28;20031;-65
2024/02/03 13:00:51;;;;;;;4.07;2.70;;;;;;;;;;4962399;28;20510;-66
2024/02/03 13:03:17;;;;;;;3.17;2.45;;;;;;;;;;4960803;28;20043;-65
2024/02/03 13:05:48;;;;;;;3.65;2.60;;;;;;;;;;4969527;28;20422;-65
2024/02/03 13:08:15;;;;;;;4.35;2.42;;;;;;;;;;4963401;28;20035;-63
2024/02/03 13:10:43;;;;;;;4.25;2.40;;;;;;;;;;4964923;28;20035;-64
2024/02/03 13:13:09;;;;;;;4.18;2.53;;;;;;;;;;4968287;28;20038;-64
2024/02/03 13:15:37;;;;;;;3.47;2.25;;;;;;;;;;4968986;28;20042;-64
2024/02/03 13:18:04;;;;;;;4.65;2.83;;;;;;;;;;4969610;28;20046;-64
2024/02/03 13:20:30;;;;;;;4.75;2.63;;;;;;;;;;4967279;28;20529;-64
2024/02/03 13:22:56;;;;;;;9.23;2.90;;;;;;;;;;4962802;28;20050;-64
2024/02/03 13:25:22;;;;;;;3.88;2.58;;;;;;;;;;4961142;28;20054;-63
2024/02/03 13:27:49;;;;;;;6.00;2.65;;;;;;;;;;4968659;28;20387;-64
2024/02/03 13:30:15;;;;;;;5.97;2.78;;;;;;;;;;4963015;28;20050;-63
2024/02/03 13:32:42;;;;;;;4.28;2.55;;;;;;;;;;4963204;28;20037;-64
2024/02/03 13:35:08;;;;;;;4.00;2.63;;;;;;;;;;4970393;28;20038;-64
2024/02/03 13:37:35;;;;;;;5.63;2.88;;;;;;;;;;4972135;28;20050;-64
2024/02/03 13:40:02;;;;;;;5.70;2.33;;;;;;;;;;4966648;28;20062;-64
2024/02/03 13:42:28;;;;;;;3.83;2.10;;;;;;;;;;4967599;28;20035;-64
2024/02/03 13:44:55;;;;;;;4.93;2.38;;;;;;;;;;4966218;28;20034;-64
2024/02/03 13:47:22;;;;;;;4.13;2.80;;;;;;;;;;4965956;28;20046;-64
2024/02/03 13:49:49;;;;;;;4.72;2.83;;;;;;;;;;4964870;28;20039;-65
2024/02/03 13:52:17;;;;;;;4.65;2.42;;;;;;;;;;4964847;28;20062;-65
2024/02/03 13:54:45;;;;;;;4.68;2.38;;;;;;;;;;4969432;28;20034;-64
2024/02/03 13:57:12;;;;;;;5.72;2.67;;;;;;;;;;4966999;28;20057;-64
2024/02/03 13:59:38;;;;;;;9.48;2.50;;;;;;;;;;4970888;28;20039;-65
2024/02/03 14:02:05;;;;;;;4.80;2.72;;;;;;;;;;4970101;28;20039;-66
2024/02/03 14:04:32;;;;;;;6.63;3.00;;;;;;;;;;4973222;28;20057;-64
2024/02/03 14:07:01;;;;;;;6.78;3.03;;;;;;;;;;4971040;28;20038;-65
2024/02/03 14:09:27;;;;;;;6.55;3.30;;;;;;;;;;4972653;28;20042;-65
2024/02/03 14:11:54;;;;;;;4.20;2.70;;;;;;;;;;4969762;28;20038;-64
2024/02/03 14:14:21;;;;;;;3.90;2.70;;;;;;;;;;4973879;28;20406;-65
2024/02/03 14:16:48;;;;;;;7.68;3.33;;;;;;;;;;4971080;28;20046;-65
2024/02/03 14:19:15;;;;;;;5.18;2.88;;;;;;;;;;4961101;28;20544;-65
2024/02/03 14:21:41;;;;;;;3.85;2.60;;;;;;;;;;4970944;28;20058;-64
2024/02/03 14:24:08;;;;;;;3.65;2.70;;;;;;;;;;4969636;28;20050;-64
2024/02/03 14:26:35;;;;;;;5.88;3.17;;;;;;;;;;4970025;28;20057;-64
2024/02/03 14:29:01;;;;;;;4.35;2.80;;;;;;;;;;4968244;28;20042;-65
2024/02/03 14:31:28;;;;;;;6.40;3.50;;;;;;;;;;4964632;28;20046;-64
2024/02/03 14:33:54;;;;;;;6.72;3.38;;;;;;;;;;4962748;28;20414;-65
2024/02/03 14:36:20;;;;;;;5.95;3.40;;;;;;;;;;4967377;28;20047;-64
2024/02/03 14:38:46;;;;;;;5.65;3.60;;;;;;;;;;4960205;28;20038;-63
2024/02/03 14:41:13;;;;;;;7.95;3.20;;;;;;;;;;4959293;28;20051;-65